Time;durP1;ratioP1;P1;durP2;ratioP2;P2;SDS_P1;SDS_P2;PMS_P1;PMS_P2;Temp;Humidity;BMP_temperature;BMP_pressure;BME280_temperature;BME280_humidity;BME280_pressure;Samples;Min_cycle;Max_cycle;Signal;HPM_P1;HPM_P2
2021/07/21 00:01:45;;;;;;;6.97;5.30;;;;;;;12.26;100.00;101308.41;5026406;28;20487;-77
2021/07/21 00:04:13;;;;;;;8.32;6.22;;;;;;;12.31;100.00;101303.03;5024467;28;20483;-77
2021/07/21 00:06:55;;;;;;;7.88;6.47;;;;;;;12.37;100.00;101305.59;5006589;28;20576;-78
2021/07/21 00:09:21;;;;;;;11.38;7.25;;;;;;;12.46;100.00;101307.19;5031334;28;20598;-77
2021/07/21 00:14:35;;;;;;;13.18;7.18;;;;;;;12.54;100.00;101303.50;5008421;28;20057;-77
2021/07/21 00:17:06;;;;;;;11.95;6.90;;;;;;;12.49;100.00;101304.47;5013979;28;20046;-78
2021/07/21 00:22:18;;;;;;;9.80;6.53;;;;;;;12.46;100.00;101302.75;5009974;28;20046;-77
2021/07/21 00:24:45;;;;;;;8.18;7.38;;;;;;;12.46;100.00;101302.75;5015677;28;20445;-76
2021/07/21 00:27:12;;;;;;;8.40;6.43;;;;;;;12.53;100.00;101303.53;5029981;28;20045;-77
2021/07/21 00:29:38;;;;;;;7.90;6.38;;;;;;;12.54;100.00;101300.84;5030492;28;20136;-77
2021/07/21 00:32:05;;;;;;;8.35;6.75;;;;;;;12.59;100.00;101306.91;5029895;28;20050;-76
2021/07/21 00:34:32;;;;;;;9.82;6.53;;;;;;;12.65;100.00;101303.28;5015116;28;20041;-78
2021/07/21 00:36:59;;;;;;;8.77;6.90;;;;;;;12.62;100.00;101303.38;5029852;28;20395;-77
2021/07/21 00:39:25;;;;;;;8.23;6.97;;;;;;;12.69;100.00;101307.63;5014337;28;20045;-76
2021/07/21 00:41:52;;;;;;;10.18;6.95;;;;;;;12.69;100.00;101302.31;5012794;28;20049;-77
2021/07/21 00:44:19;;;;;;;9.73;7.57;;;;;;;12.69;100.00;101304.97;5034492;28;20032;-76
2021/07/21 00:46:45;;;;;;;8.95;6.53;;;;;;;12.70;100.00;101304.09;5026213;28;20110;-77
2021/07/21 00:49:12;;;;;;;8.75;6.65;;;;;;;12.69;100.00;101304.97;5031063;28;20053;-77
2021/07/21 00:51:39;;;;;;;8.52;6.75;;;;;;;12.67;100.00;101304.13;5031112;28;20045;-77
2021/07/21 00:54:07;;;;;;;8.13;6.55;;;;;;;12.72;100.00;101304.94;5031549;28;20034;-76
2021/07/21 00:56:35;;;;;;;9.30;7.28;;;;;;;12.76;100.00;101308.38;5026288;28;20049;-77
2021/07/21 00:59:03;;;;;;;9.60;6.88;;;;;;;12.82;100.00;101297.66;5014910;28;20533;-77
2021/07/21 01:01:30;;;;;;;8.05;6.80;;;;;;;12.84;100.00;101301.16;5028293;28;20050;-77
2021/07/21 01:03:56;;;;;;;9.52;7.07;;;;;;;12.88;100.00;101306.38;5018933;28;20707;-78
2021/07/21 01:06:23;;;;;;;9.27;7.10;;;;;;;12.90;100.00;101301.91;5016198;28;20469;-77
2021/07/21 01:08:50;;;;;;;8.93;6.70;;;;;;;12.95;100.00;101297.41;5030480;28;20049;-77
2021/07/21 01:11:23;;;;;;;8.82;7.18;;;;;;;12.95;100.00;101302.72;5032243;28;20502;-77
2021/07/21 01:13:55;;;;;;;8.10;6.63;;;;;;;12.98;100.00;101304.41;5018630;28;20421;-77
2021/07/21 01:16:26;;;;;;;9.27;7.13;;;;;;;13.08;100.00;101298.00;5042266;28;20035;-77
2021/07/21 01:18:58;;;;;;;8.93;6.95;;;;;;;13.10;100.00;101296.19;5020874;28;20077;-78
2021/07/21 01:21:24;;;;;;;8.98;7.38;;;;;;;13.11;100.00;101302.38;5040089;28;20053;-78
2021/07/21 01:24:00;;;;;;;8.57;7.40;;;;;;;13.10;100.00;101295.31;5154747;23;20048;-79
2021/07/21 01:26:30;;;;;;;8.18;7.10;;;;;;;13.13;100.00;101296.16;5047396;28;20433;-79
2021/07/21 01:28:58;;;;;;;8.82;7.22;;;;;;;13.19;100.00;101297.78;5054296;28;20619;-82
2021/07/21 01:31:38;;;;;;;9.18;7.28;;;;;;;13.18;100.00;101298.69;5052116;28;20033;-80
2021/07/21 01:34:06;;;;;;;9.48;7.13;;;;;;;13.21;100.00;101296.03;5054287;28;20036;-82
2021/07/21 01:36:38;;;;;;;8.90;6.60;;;;;;;13.28;100.00;101302.06;5069035;28;20052;-79
2021/07/21 01:39:08;;;;;;;9.77;8.00;;;;;;;13.30;100.00;101293.19;5047717;28;20032;-81
2021/07/21 01:41:39;;;;;;;9.65;7.20;;;;;;;13.32;100.00;101299.31;5052058;28;20110;-79
2021/07/21 01:44:10;;;;;;;10.25;7.43;;;;;;;13.32;100.00;101291.34;5053875;28;20041;-82
2021/07/21 01:46:39;;;;;;;9.25;7.68;;;;;;;13.28;100.00;101302.06;5036341;28;20047;-81
2021/07/21 01:49:06;;;;;;;8.73;7.10;;;;;;;13.32;100.00;101303.75;5052040;28;20055;-80
2021/07/21 01:51:33;;;;;;;7.72;6.53;;;;;;;13.34;100.00;101305.47;5040754;28;20048;-81
2021/07/21 01:54:00;;;;;;;9.55;6.85;;;;;;;13.39;100.00;101303.59;5053653;28;20094;-82
2021/07/21 01:56:31;;;;;;;10.60;8.43;;;;;;;13.48;100.00;101306.03;5048276;28;20044;-80
2021/07/21 01:58:58;;;;;;;9.07;7.63;;;;;;;13.49;100.00;101301.59;5047616;28;20048;-79
2021/07/21 02:01:27;;;;;;;11.20;7.78;;;;;;;13.50;100.00;101304.22;5053120;28;20044;-81
2021/07/21 02:03:56;;;;;;;11.00;8.57;;;;;;;13.50;100.00;101306.88;5031851;28;20041;-82
2021/07/21 02:06:23;;;;;;;11.25;8.00;;;;;;;13.55;100.00;101309.44;5036817;28;20094;-81
2021/07/21 02:08:53;;;;;;;12.00;8.50;;;;;;;13.50;100.00;101312.19;5033919;28;20426;-82
2021/07/21 02:11:19;;;;;;;10.05;8.02;;;;;;;13.48;100.00;101308.69;5035631;28;20044;-83
2021/07/21 02:13:46;;;;;;;11.43;7.55;;;;;;;13.47;100.00;101306.94;5045352;28;20045;-83
2021/07/21 02:16:13;;;;;;;10.90;8.27;;;;;;;13.49;100.00;101309.56;5034822;28;20044;-83
2021/07/21 02:18:40;;;;;;;12.60;8.80;;;;;;;13.55;100.00;101311.22;5037614;28;20447;-83
2021/07/21 02:21:07;;;;;;;11.68;7.70;;;;;;;13.57;100.00;101317.38;5069450;28;20048;-81
2021/07/21 02:23:34;;;;;;;12.00;7.43;;;;;;;13.58;100.00;101313.81;5054741;28;20048;-82
2021/07/21 02:26:01;;;;;;;9.23;7.05;;;;;;;13.60;100.00;101311.97;5036537;28;20036;-80
2021/07/21 02:28:29;;;;;;;10.38;7.60;;;;;;;13.60;100.00;101314.63;5038156;28;20113;-82
2021/07/21 02:30:58;;;;;;;10.55;7.47;;;;;;;13.63;100.00;101309.28;5037409;28;20135;-81
2021/07/21 02:33:46;;;;;;;9.30;7.50;;;;;;;13.66;100.00;101311.84;5052828;28;20059;-82
2021/07/21 02:36:14;;;;;;;10.75;7.70;;;;;;;13.66;100.00;101315.38;5051488;28;20081;-80
2021/07/21 02:38:40;;;;;;;10.07;7.63;;;;;;;13.67;100.00;101313.59;5048870;28;20048;-80
2021/07/21 02:41:07;;;;;;;9.25;7.47;;;;;;;13.69;100.00;101314.41;5050795;28;20090;-84
2021/07/21 02:43:34;;;;;;;10.70;8.00;;;;;;;13.68;100.00;101318.84;5068678;28;20048;-81
2021/07/21 02:46:01;;;;;;;12.52;7.60;;;;;;;13.72;100.00;101315.25;5035743;28;20079;-80
2021/07/21 02:48:28;;;;;;;14.13;7.93;;;;;;;13.78;100.00;101320.38;5052569;28;20051;-82
2021/07/21 02:51:01;;;;;;;12.05;8.43;;;;;;;13.76;100.00;101318.69;5034059;28;20068;-86
2021/07/21 02:53:33;;;;;;;9.23;7.63;;;;;;;13.74;100.00;101323.16;5045999;28;20053;-80
2021/07/21 02:56:06;;;;;;;11.20;8.18;;;;;;;13.76;100.00;101319.56;5051570;28;20127;-80
2021/07/21 02:58:53;;;;;;;11.77;7.28;;;;;;;13.76;100.00;101318.69;5036094;28;20044;-81
2021/07/21 03:01:21;;;;;;;11.70;7.30;;;;;;;13.85;100.00;101325.56;5033535;28;20390;-82
2021/07/21 03:03:49;;;;;;;10.82;8.20;;;;;;;13.80;100.00;101325.69;5036133;28;20044;-81
2021/07/21 03:06:17;;;;;;;12.25;7.55;;;;;;;13.76;100.00;101324.00;5084869;28;20039;-81
2021/07/21 03:08:44;;;;;;;10.00;7.85;;;;;;;13.72;100.00;101319.69;5052621;28;20460;-81
2021/07/21 03:11:12;;;;;;;15.60;8.25;;;;;;;13.74;100.00;101325.81;5044787;28;20052;-82
2021/07/21 03:13:43;;;;;;;9.15;6.63;;;;;;;13.72;100.00;101319.69;5052741;28;20053;-83
2021/07/21 03:16:11;;;;;;;14.38;8.18;;;;;;;13.74;100.00;101324.03;5034981;28;20507;-83
2021/07/21 03:18:39;;;;;;;10.00;6.82;;;;;;;13.77;100.00;101321.28;5069269;28;20074;-82
2021/07/21 03:21:08;;;;;;;9.43;8.15;;;;;;;13.78;100.00;101320.38;5051450;28;20036;-81
2021/07/21 03:23:36;;;;;;;11.25;8.45;;;;;;;13.73;100.00;101327.59;5052661;28;20051;-80
2021/07/21 03:26:05;;;;;;;10.32;7.75;;;;;;;13.76;100.00;101321.34;5034780;28;20067;-83
2021/07/21 03:28:34;;;;;;;10.15;7.43;;;;;;;13.77;100.00;101328.41;5036327;28;20044;-82
2021/07/21 03:31:01;;;;;;;8.90;7.18;;;;;;;13.76;100.00;101331.97;5034684;28;20091;-82
2021/07/21 03:33:28;;;;;;;9.65;7.28;;;;;;;13.75;100.00;101328.44;5043403;28;20611;-81
2021/07/21 03:36:03;;;;;;;10.23;8.35;;;;;;;13.87;100.00;101331.72;5033351;28;20106;-83
2021/07/21 03:38:30;;;;;;;9.75;7.32;;;;;;;13.85;100.00;101336.19;5051636;28;20045;-82
2021/07/21 03:40:58;;;;;;;11.82;8.00;;;;;;;13.85;100.00;101341.50;5035002;28;20044;-83
2021/07/21 03:43:25;;;;;;;9.77;7.20;;;;;;;13.84;100.00;101339.75;5069379;28;20123;-82
2021/07/21 03:45:56;;;;;;;11.60;7.47;;;;;;;13.87;100.00;101340.53;5067680;28;20045;-82
2021/07/21 03:48:24;;;;;;;11.90;7.68;;;;;;;13.89;100.00;101332.56;5036003;28;20047;-83
2021/07/21 03:50:50;;;;;;;10.13;7.22;;;;;;;13.92;100.00;101338.66;5035233;28;20044;-84
2021/07/21 03:53:17;;;;;;;10.07;7.60;;;;;;;13.95;100.00;101341.25;5068872;28;20335;-80
2021/07/21 03:55:44;;;;;;;12.07;7.82;;;;;;;13.97;100.00;101344.75;5033646;28;20037;-82
2021/07/21 03:58:12;;;;;;;8.82;7.00;;;;;;;14.00;100.00;101342.03;5067861;28;20508;-83
2021/07/21 04:00:38;;;;;;;11.07;8.10;;;;;;;14.06;100.00;101347.19;5048167;28;20049;-80
2021/07/21 04:03:06;;;;;;;10.35;7.03;;;;;;;14.09;100.00;101357.75;5051382;28;20127;-80
2021/07/21 04:05:33;;;;;;;9.75;6.95;;;;;;;14.10;100.00;101347.97;5028134;28;20136;-80
2021/07/21 04:08:01;;;;;;;8.73;7.10;;;;;;;14.14;100.00;101354.13;5068148;28;20070;-83
2021/07/21 04:10:29;;;;;;;10.77;8.02;;;;;;;14.19;100.00;101347.75;5033176;28;20055;-81
2021/07/21 04:12:57;;;;;;;10.27;7.60;;;;;;;14.22;100.00;101353.03;5035134;28;20094;-80
2021/07/21 04:15:25;;;;;;;9.93;7.63;;;;;;;14.28;100.00;101357.28;5049458;28;20135;-81
2021/07/21 04:17:52;;;;;;;10.15;7.05;;;;;;;14.31;100.00;101358.09;5051206;28;20052;-81
2021/07/21 04:20:19;;;;;;;9.90;7.35;;;;;;;14.36;100.00;101363.28;5082547;28;20045;-82
2021/07/21 04:22:47;;;;;;;9.75;7.07;;;;;;;14.43;100.00;101361.34;5049586;28;20048;-82
2021/07/21 04:25:14;;;;;;;10.10;7.38;;;;;;;14.47;100.00;101360.41;5032715;28;20041;-81
2021/07/21 04:27:42;;;;;;;8.70;7.00;;;;;;;14.55;100.00;101361.97;5033534;28;20481;-81
2021/07/21 04:30:09;;;;;;;8.70;7.40;;;;;;;14.60;100.00;101368.03;5033330;28;20106;-83
2021/07/21 04:32:36;;;;;;;10.30;7.75;;;;;;;14.67;100.00;101376.72;5080758;28;20095;-80
2021/07/21 04:35:05;;;;;;;11.20;7.05;;;;;;;14.73;100.00;101371.25;5050257;28;20090;-80
2021/07/21 04:37:33;;;;;;;13.35;7.75;;;;;;;14.80;100.00;101377.28;5033826;28;20052;-81
2021/07/21 04:40:00;;;;;;;9.93;6.93;;;;;;;14.83;100.00;101383.38;5066938;28;20578;-81
2021/07/21 04:42:28;;;;;;;13.00;7.03;;;;;;;14.89;100.00;101379.69;5054061;28;20044;-82
2021/07/21 04:44:55;;;;;;;9.00;6.90;;;;;;;14.94;100.00;101377.78;5034110;28;20044;-80
2021/07/21 04:47:22;;;;;;;9.60;6.82;;;;;;;14.99;100.00;101385.66;5049456;28;20048;-81
2021/07/21 04:49:50;;;;;;;8.98;6.85;;;;;;;15.05;100.00;101386.34;5050282;28;20048;-81
2021/07/21 04:52:18;;;;;;;9.40;6.55;;;;;;;15.13;100.00;101387.03;5049190;28;20044;-80
2021/07/21 04:54:46;;;;;;;8.07;6.20;;;;;;;15.21;100.00;101392.97;5037725;28;20033;-79
2021/07/21 04:57:12;;;;;;;9.13;6.97;;;;;;;15.29;100.00;101387.44;5052666;28;20067;-80
2021/07/21 04:59:39;;;;;;;9.50;7.25;;;;;;;15.37;100.00;101384.56;5070167;28;20044;-83
2021/07/21 05:02:06;;;;;;;9.73;6.57;;;;;;;15.46;100.00;101384.28;5036489;28;20048;-80
2021/07/21 05:04:35;;;;;;;9.80;7.30;;;;;;;15.52;100.00;101384.13;5053985;28;20043;-80
2021/07/21 05:07:02;;;;;;;9.52;6.68;;;;;;;15.59;100.00;101384.81;5052993;28;20048;-82
2021/07/21 05:09:29;;;;;;;11.30;7.78;;;;;;;15.69;100.00;101391.66;5053494;28;20033;-81
2021/07/21 05:11:56;;;;;;;10.45;7.15;;;;;;;15.74;100.00;101387.06;5052814;28;20417;-82
2021/07/21 05:14:22;;;;;;;9.27;6.50;;;;;;;15.84;100.00;101387.66;5065096;28;20041;-81
2021/07/21 05:16:49;;;;;;;10.48;6.88;;;;;;;15.91;100.00;101391.88;5032090;28;20048;-80
2021/07/21 05:19:16;;;;;;;10.25;6.80;;;;;;;16.03;99.86;101394.16;5053135;28;20032;-82
2021/07/21 05:21:42;;;;;;;9.25;6.75;;;;;;;16.12;99.14;101393.84;5052834;28;20049;-80
2021/07/21 05:24:09;;;;;;;9.48;6.50;;;;;;;16.25;98.12;101394.34;5065035;28;20103;-82
2021/07/21 05:26:39;;;;;;;9.40;7.20;;;;;;;16.37;96.83;101388.59;5035837;28;20555;-82
2021/07/21 05:29:05;;;;;;;8.63;6.10;;;;;;;16.49;96.45;101395.34;5062751;28;20040;-81
2021/07/21 05:31:32;;;;;;;9.35;7.05;;;;;;;16.64;95.96;101397.47;5033039;28;20664;-82
2021/07/21 05:33:59;;;;;;;9.27;6.38;;;;;;;16.77;95.26;101396.19;5033789;28;20036;-82
2021/07/21 05:36:25;;;;;;;10.90;6.63;;;;;;;16.89;94.05;101403.75;5031876;28;20033;-83
2021/07/21 05:38:52;;;;;;;7.93;5.82;;;;;;;16.97;92.85;101403.47;5068653;28;20041;-80
2021/07/21 05:41:18;;;;;;;9.35;6.70;;;;;;;17.03;92.65;101413.06;5066505;28;20055;-83
2021/07/21 05:43:45;;;;;;;8.77;6.05;;;;;;;17.02;92.43;101406.00;5069230;28;20055;-83
2021/07/21 05:46:12;;;;;;;9.23;6.22;;;;;;;17.08;91.35;101411.13;5067836;28;20524;-82
2021/07/21 05:48:39;;;;;;;10.85;7.18;;;;;;;17.09;91.00;101408.41;5030842;28;20090;-81
2021/07/21 05:51:06;;;;;;;9.60;6.93;;;;;;;17.11;91.54;101411.00;5036021;28;20044;-81
2021/07/21 05:53:33;;;;;;;8.88;6.30;;;;;;;17.09;91.87;101421.75;5052816;28;20044;-81
2021/07/21 05:55:59;;;;;;;10.27;6.63;;;;;;;17.10;91.74;101417.28;5051451;28;20036;-82
2021/07/21 05:58:26;;;;;;;9.50;6.65;;;;;;;17.07;91.73;101414.72;5049499;28;20040;-81
2021/07/21 06:00:53;;;;;;;8.45;6.10;;;;;;;17.02;92.54;101422.03;5053525;28;20036;-81
2021/07/21 06:03:22;;;;;;;9.73;6.35;;;;;;;17.03;92.37;101429.97;5052780;28;20032;-83
2021/07/21 06:05:48;;;;;;;10.68;6.60;;;;;;;16.99;92.63;101427.47;5051419;28;20040;-83
2021/07/21 06:08:15;;;;;;;9.60;6.25;;;;;;;17.01;93.12;101425.63;5050588;28;20386;-81
2021/07/21 06:10:42;;;;;;;8.43;6.80;;;;;;;16.98;92.92;101431.91;5016495;28;20099;-83
2021/07/21 06:13:11;;;;;;;10.02;6.82;;;;;;;17.01;93.26;101430.97;5053490;28;20048;-82
2021/07/21 06:15:39;;;;;;;9.57;6.95;;;;;;;17.04;93.07;101441.50;5036746;28;20040;-82
2021/07/21 06:18:06;;;;;;;10.55;6.30;;;;;;;17.08;92.12;101438.69;5035509;28;20157;-81
2021/07/21 06:20:34;;;;;;;8.90;6.20;;;;;;;17.12;92.82;101440.31;5048178;28;20067;-82
2021/07/21 06:23:00;;;;;;;7.35;5.72;;;;;;;17.12;93.52;101448.34;5043635;28;20076;-82
2021/07/21 06:25:28;;;;;;;9.30;6.72;;;;;;;17.18;93.72;101439.25;5022685;28;20079;-82
2021/07/21 06:27:55;;;;;;;11.07;7.07;;;;;;;17.27;92.99;101449.59;5036496;28;20048;-81
2021/07/21 06:30:21;;;;;;;8.85;6.32;;;;;;;17.30;93.31;101448.59;5035206;28;20056;-82
2021/07/21 06:32:48;;;;;;;10.68;6.97;;;;;;;17.37;92.63;101444.78;5033048;28;20036;-83
2021/07/21 06:35:14;;;;;;;11.25;6.55;;;;;;;17.50;91.46;101447.91;5035130;28;20502;-83
2021/07/21 06:37:41;;;;;;;9.43;6.70;;;;;;;17.51;90.22;101449.66;5051578;28;20052;-83
2021/07/21 06:40:09;;;;;;;8.75;6.43;;;;;;;17.55;89.94;101460.16;5049210;28;20048;-82
2021/07/21 06:42:38;;;;;;;9.73;7.10;;;;;;;17.55;90.83;101451.25;5047373;28;20044;-82
2021/07/21 06:45:05;;;;;;;12.07;6.90;;;;;;;17.58;88.98;101459.19;5036103;28;20440;-81
2021/07/21 06:47:32;;;;;;;9.38;6.97;;;;;;;17.66;90.75;101463.31;5032801;28;20059;-84
2021/07/21 06:49:59;;;;;;;8.38;6.13;;;;;;;17.76;90.73;101463.00;5051885;28;20044;-82
2021/07/21 06:52:26;;;;;;;8.65;5.97;;;;;;;17.80;89.78;101461.94;5033429;28;20067;-84
2021/07/21 06:54:53;;;;;;;10.70;6.28;;;;;;;17.91;89.29;101471.31;5050710;28;20283;-82
2021/07/21 06:57:20;;;;;;;9.00;6.50;;;;;;;17.95;88.32;101478.28;5034199;28;20417;-84
2021/07/21 06:59:47;;;;;;;8.65;6.38;;;;;;;18.08;87.98;101480.50;5049655;28;20047;-81
2021/07/21 07:02:14;;;;;;;7.95;6.25;;;;;;;18.18;85.50;101476.53;5064528;28;20043;-82
2021/07/21 07:04:41;;;;;;;9.82;5.95;;;;;;;18.30;86.10;101481.38;5023910;28;20044;-81
2021/07/21 07:07:08;;;;;;;8.80;6.60;;;;;;;18.49;84.44;101484.19;5034622;28;20049;-83
2021/07/21 07:09:35;;;;;;;8.43;6.13;;;;;;;18.63;82.09;101483.66;5032244;28;20416;-83
2021/07/21 07:12:01;;;;;;;9.93;6.78;;;;;;;18.79;78.93;101480.31;5030820;28;20525;-82
2021/07/21 07:14:28;;;;;;;10.10;6.38;;;;;;;18.75;81.24;101488.50;5032490;28;20041;-82
2021/07/21 07:16:55;;;;;;;8.43;5.97;;;;;;;18.67;78.99;101485.31;5030985;28;20033;-83
2021/07/21 07:19:24;;;;;;;8.05;5.72;;;;;;;18.76;80.82;101488.47;5015934;28;20041;-81
2021/07/21 07:21:51;;;;;;;8.68;6.20;;;;;;;18.93;79.57;101487.78;5032181;28;20049;-82
2021/07/21 07:24:18;;;;;;;11.52;6.50;;;;;;;19.00;80.25;101489.25;5052546;28;20429;-82
2021/07/21 07:26:44;;;;;;;10.98;6.72;;;;;;;19.05;80.73;101492.59;5047867;28;20055;-82
2021/07/21 07:29:11;;;;;;;8.27;6.38;;;;;;;19.18;76.21;101494.78;5024718;28;20052;-82
2021/07/21 07:31:39;;;;;;;9.52;6.57;;;;;;;19.23;78.26;101490.06;5074574;23;20433;-77
2021/07/21 07:34:06;;;;;;;7.97;6.22;;;;;;;19.35;79.00;101489.56;5023334;28;20069;-76
2021/07/21 07:36:32;;;;;;;7.63;5.32;;;;;;;19.38;78.02;101492.09;5011813;28;20057;-78
2021/07/21 07:39:01;;;;;;;9.77;5.80;;;;;;;19.47;73.73;101496.16;5013099;28;20053;-78
2021/07/21 07:41:27;;;;;;;8.38;5.20;;;;;;;19.55;73.90;101502.94;5025043;28;20045;-77
2021/07/21 07:43:54;;;;;;;8.68;6.03;;;;;;;19.69;74.91;101499.69;5016463;28;20052;-76
2021/07/21 07:46:25;;;;;;;8.52;6.07;;;;;;;19.62;72.40;101499.06;5015120;28;20041;-78
2021/07/21 07:48:53;;;;;;;8.20;6.15;;;;;;;19.80;70.48;101500.06;5005445;28;20395;-77
2021/07/21 07:51:21;;;;;;;8.10;5.60;;;;;;;20.12;72.11;101492.34;5024206;28;20057;-79
2021/07/21 07:53:48;;;;;;;7.30;5.32;;;;;;;20.36;67.78;101490.31;4998974;28;20044;-77
2021/07/21 07:56:15;;;;;;;7.85;5.43;;;;;;;20.66;67.38;101480.78;5036530;28;20033;-77
2021/07/21 07:58:42;;;;;;;7.07;5.03;;;;;;;21.01;67.78;101487.06;5013322;28;20401;-76
2021/07/21 08:01:08;;;;;;;8.23;5.15;;;;;;;21.29;64.26;101483.88;5025298;28;20111;-78
2021/07/21 08:03:35;;;;;;;7.10;5.00;;;;;;;21.64;64.00;101495.44;5016951;28;20486;-78
2021/07/21 08:06:02;;;;;;;6.60;4.80;;;;;;;21.96;61.29;101490.16;5031905;28;20044;-78
2021/07/21 08:08:29;;;;;;;6.55;3.97;;;;;;;22.18;58.48;101493.41;5015284;28;20037;-78
2021/07/21 08:10:56;;;;;;;4.93;3.65;;;;;;;22.14;55.40;101480.22;5015485;28;20044;-78
2021/07/21 08:13:24;;;;;;;5.05;4.15;;;;;;;22.38;58.18;101486.94;5031420;28;20072;-77
2021/07/21 08:15:51;;;;;;;6.10;4.78;;;;;;;22.26;58.49;101489.44;5027952;28;20042;-77
2021/07/21 08:18:18;;;;;;;4.82;3.90;;;;;;;22.06;58.01;101490.50;5029325;28;20510;-77
2021/07/21 08:20:45;;;;;;;4.60;4.00;;;;;;;21.57;56.93;101495.84;5028476;28;20046;-77
2021/07/21 08:23:12;;;;;;;4.78;3.65;;;;;;;21.69;56.33;101491.63;5015553;28;20490;-77
2021/07/21 08:25:38;;;;;;;4.63;4.10;;;;;;;21.97;57.68;101491.03;5022063;28;20037;-79
2021/07/21 08:28:06;;;;;;;5.55;3.92;;;;;;;21.87;55.45;101490.66;5005359;28;20045;-77
2021/07/21 08:30:32;;;;;;;5.38;4.25;;;;;;;21.84;56.16;101488.13;5025925;28;20053;-79
2021/07/21 08:33:00;;;;;;;6.40;4.07;;;;;;;21.75;56.59;101492.19;5003199;28;20053;-76
2021/07/21 08:35:29;;;;;;;5.60;3.80;;;;;;;21.37;55.00;101478.09;5036905;28;20052;-78
2021/07/21 08:37:57;;;;;;;5.60;4.03;;;;;;;21.56;57.92;101484.22;5050974;28;20057;-76
2021/07/21 08:40:25;;;;;;;4.97;3.72;;;;;;;21.65;56.06;101488.25;5034657;28;20037;-76
2021/07/21 08:42:53;;;;;;;4.32;3.58;;;;;;;21.58;55.79;101486.84;5036452;28;20464;-77
2021/07/21 08:45:20;;;;;;;5.13;3.90;;;;;;;21.53;56.31;101494.28;5035248;28;20159;-77
2021/07/21 08:47:47;;;;;;;5.57;4.30;;;;;;;21.32;55.16;101489.06;5034912;28;20457;-77
2021/07/21 08:50:14;;;;;;;38.35;6.65;;;;;;;21.58;54.86;101481.47;5032281;28;20045;-77
2021/07/21 08:52:41;;;;;;;5.97;4.00;;;;;;;22.22;54.55;101482.50;5000136;28;20052;-76
2021/07/21 08:55:10;;;;;;;33.45;7.28;;;;;;;22.46;53.42;101483.81;5024029;28;20095;-78
2021/07/21 08:57:38;;;;;;;6.13;4.43;;;;;;;22.90;51.75;101481.25;5015963;28;20052;-78
2021/07/21 09:00:12;;;;;;;5.05;3.67;;;;;;;23.07;51.05;101484.78;5034735;28;20071;-77
2021/07/21 09:02:40;;;;;;;5.25;4.03;;;;;;;23.05;49.45;101489.41;5000764;28;20041;-78
2021/07/21 09:05:09;;;;;;;5.05;3.95;;;;;;;22.99;49.80;101488.78;5042797;28;20505;-78
2021/07/21 09:07:36;;;;;;;5.93;3.92;;;;;;;23.15;50.06;101493.28;5022488;28;20037;-79
2021/07/21 09:10:09;;;;;;;6.57;4.07;;;;;;;23.16;50.39;101495.00;5009926;28;20102;-78
2021/07/21 09:12:45;;;;;;;6.88;4.05;;;;;;;22.75;48.76;101491.06;5023387;28;20049;-79
2021/07/21 09:15:16;;;;;;;5.75;4.10;;;;;;;22.67;50.13;101496.03;5046832;28;20047;-78
2021/07/21 09:18:04;;;;;;;5.05;3.50;;;;;;;22.64;50.98;101496.22;5015778;28;20037;-78
2021/07/21 09:20:36;;;;;;;6.03;4.30;;;;;;;22.70;49.78;101492.28;4998782;28;20481;-77
2021/07/21 09:23:03;;;;;;;4.03;3.60;;;;;;;22.75;49.17;101490.19;5016911;28;20037;-77
2021/07/21 09:25:33;;;;;;;4.78;3.70;;;;;;;22.91;52.79;101485.69;5027304;28;21529;-77
2021/07/21 09:28:03;;;;;;;4.30;3.70;;;;;;;22.92;47.91;101489.25;5005949;28;20103;-78
2021/07/21 09:30:36;;;;;;;5.35;4.25;;;;;;;23.19;50.63;101498.38;5015395;28;20347;-78
2021/07/21 09:33:08;;;;;;;5.25;3.75;;;;;;;23.20;51.21;101491.16;5026924;28;20053;-78
2021/07/21 09:35:40;;;;;;;6.78;3.80;;;;;;;23.24;49.97;101481.94;5031131;28;20045;-78
2021/07/21 09:38:09;;;;;;;6.20;3.90;;;;;;;23.39;51.99;101488.22;5029508;28;20041;-79
2021/07/21 09:40:40;;;;;;;4.28;3.50;;;;;;;23.53;49.21;101488.22;5008442;28;20045;-78
2021/07/21 09:43:12;;;;;;;4.88;3.47;;;;;;;23.48;50.71;101485.84;5018666;28;20099;-77
2021/07/21 09:45:41;;;;;;;4.30;3.80;;;;;;;23.35;49.39;101476.75;5038171;28;20045;-77
2021/07/21 09:48:09;;;;;;;5.63;4.38;;;;;;;23.38;48.93;101484.66;5041087;28;20045;-75
2021/07/21 09:50:40;;;;;;;4.47;3.70;;;;;;;23.38;49.83;101479.28;5010483;28;20445;-77
2021/07/21 09:53:10;;;;;;;5.57;4.13;;;;;;;23.59;49.84;101485.16;5032052;28;20053;-78
2021/07/21 09:55:38;;;;;;;4.15;3.40;;;;;;;23.68;48.18;101494.56;5034278;28;20057;-78
2021/07/21 09:58:13;;;;;;;9.15;4.28;;;;;;;23.94;46.14;101485.69;5016943;28;20064;-78
2021/07/21 10:00:44;;;;;;;4.35;3.72;;;;;;;23.92;45.01;101489.47;5023854;28;20095;-77
2021/07/21 10:03:22;;;;;;;5.75;4.20;;;;;;;24.25;47.54;101481.03;5034898;28;20100;-77
2021/07/21 10:05:56;;;;;;;5.45;4.43;;;;;;;24.17;46.23;101477.97;5048312;28;20500;-78
2021/07/21 10:08:25;;;;;;;4.80;3.70;;;;;;;23.97;46.53;101484.66;5033051;28;20041;-78
2021/07/21 10:10:52;;;;;;;5.70;4.22;;;;;;;23.72;48.64;101480.78;5028833;28;20049;-78
2021/07/21 10:13:19;;;;;;;4.95;3.63;;;;;;;23.62;49.23;101490.38;5044207;28;20102;-79
2021/07/21 10:15:47;;;;;;;7.85;4.15;;;;;;;23.65;49.86;101487.53;5048351;28;20068;-78
2021/07/21 10:18:16;;;;;;;4.40;3.75;;;;;;;23.68;48.23;101489.16;5033324;28;20041;-76
2021/07/21 10:20:44;;;;;;;5.07;3.90;;;;;;;23.67;48.34;101503.59;5030140;28;20403;-77
2021/07/21 10:23:13;;;;;;;8.50;4.20;;;;;;;23.64;48.67;101496.59;5030044;28;20045;-78
2021/07/21 10:25:40;;;;;;;5.15;4.18;;;;;;;23.52;50.38;101495.47;5012144;28;21147;-77
2021/07/21 10:28:07;;;;;;;4.65;3.63;;;;;;;23.40;50.38;101482.75;5014073;28;20038;-78
2021/07/21 10:30:36;;;;;;;5.45;4.28;;;;;;;23.36;51.03;101488.41;5020026;28;20052;-78
2021/07/21 10:33:04;;;;;;;7.25;4.75;;;;;;;23.22;52.55;101500.91;5013463;28;20045;-77
2021/07/21 10:35:31;;;;;;;5.13;4.47;;;;;;;23.09;54.11;101497.19;4995330;28;20108;-77
2021/07/21 10:37:58;;;;;;;7.32;4.75;;;;;;;22.93;54.62;101497.22;5029351;28;20060;-77
2021/07/21 10:40:27;;;;;;;5.82;4.68;;;;;;;22.86;55.48;101500.38;4995231;28;20538;-78
2021/07/21 10:42:55;;;;;;;16.88;6.05;;;;;;;22.69;56.66;101494.09;5001263;28;20049;-78
2021/07/21 10:45:30;;;;;;;6.57;4.90;;;;;;;22.57;57.28;101504.72;5030186;28;20090;-77
2021/07/21 10:48:21;;;;;;;5.68;4.70;;;;;;;22.38;55.81;101503.09;5022229;28;20037;-77
2021/07/21 10:51:06;;;;;;;5.60;4.82;;;;;;;22.33;57.12;101502.47;5025006;28;20494;-77
2021/07/21 10:53:54;;;;;;;8.20;5.50;;;;;;;21.90;55.83;101501.25;5040550;28;20048;-77
2021/07/21 10:59:14;;;;;;;6.18;4.32;;;;;;;21.96;57.66;101502.75;5052736;28;20049;-77
2021/07/21 11:01:44;;;;;;;6.25;4.75;;;;;;;22.01;56.83;101503.34;5014050;28;20053;-77
2021/07/21 11:04:14;;;;;;;11.90;5.33;;;;;;;21.96;57.54;101497.38;5049026;28;20045;-77
2021/07/21 11:06:46;;;;;;;6.75;5.25;;;;;;;21.70;58.90;101504.16;5047359;28;20036;-77
2021/07/21 11:09:20;;;;;;;6.70;4.85;;;;;;;21.74;59.89;101508.41;5031805;28;20045;-77
2021/07/21 11:11:51;;;;;;;7.32;5.18;;;;;;;21.66;59.84;101510.63;5047363;28;20043;-77
2021/07/21 11:14:20;;;;;;;6.00;4.72;;;;;;;21.60;59.18;101503.75;5032459;28;20041;-78
2021/07/21 11:16:54;;;;;;;5.93;5.22;;;;;;;21.56;59.40;101508.44;5021078;28;20064;-78
2021/07/21 11:19:34;;;;;;;6.18;4.82;;;;;;;21.60;58.83;101506.44;5030750;28;20490;-77
2021/07/21 11:22:07;;;;;;;6.45;4.60;;;;;;;21.48;58.02;101501.72;5033869;28;20163;-77
2021/07/21 11:25:12;;;;;;;8.18;4.75;;;;;;;21.66;60.10;101505.25;5012121;28;20049;-77
2021/07/21 11:27:50;;;;;;;6.05;4.88;;;;;;;21.84;60.20;101499.75;5043998;28;20457;-77
2021/07/21 11:30:41;;;;;;;6.50;4.95;;;;;;;21.85;58.18;101504.16;5041278;28;20441;-77
2021/07/21 11:33:55;;;;;;;5.68;4.68;;;;;;;21.79;58.20;101499.16;5038784;28;20114;-78
2021/07/21 11:36:43;;;;;;;5.22;4.70;;;;;;;21.63;59.09;101508.97;5047642;28;20073;-77